Time;durP1;ratioP1;P1;durP2;ratioP2;P2;SDS_P1;SDS_P2;PMS_P1;PMS_P2;Temp;Humidity;BMP_temperature;BMP_pressure;BME280_temperature;BME280_humidity;BME280_pressure;Samples;Min_cycle;Max_cycle;Signal;HPM_P1;HPM_P2
2021/07/24 00:02:05;;;;;;;6.82;5.57;;;23.30;99.90;;;;;;5016061;28;20306;-79
2021/07/24 00:04:33;;;;;;;5.97;5.47;;;23.20;99.90;;;;;;5023124;28;20219;-78
2021/07/24 00:07:01;;;;;;;6.00;5.50;;;23.30;99.90;;;;;;5021110;28;20234;-78
2021/07/24 00:09:30;;;;;;;6.55;5.95;;;23.30;99.90;;;;;;5019955;28;20278;-79
2021/07/24 00:11:57;;;;;;;5.85;5.35;;;23.40;99.90;;;;;;5017937;28;20317;-80
2021/07/24 00:14:24;;;;;;;5.13;4.72;;;23.40;99.90;;;;;;5017358;28;20362;-78
2021/07/24 00:16:51;;;;;;;6.63;6.07;;;23.50;99.90;;;;;;5016979;28;20681;-78
2021/07/24 00:19:18;;;;;;;6.60;6.00;;;23.50;99.90;;;;;;5018013;28;20231;-78
2021/07/24 00:21:45;;;;;;;7.20;6.63;;;23.50;99.90;;;;;;5022838;28;20216;-78
2021/07/24 00:24:13;;;;;;;7.97;7.28;;;23.40;99.90;;;;;;5023998;28;20277;-77
2021/07/24 00:26:40;;;;;;;7.55;6.68;;;23.40;99.90;;;;;;5019512;28;20297;-78
2021/07/24 00:29:07;;;;;;;6.93;6.32;;;23.30;99.90;;;;;;5027171;28;20219;-78
2021/07/24 00:31:35;;;;;;;6.85;6.25;;;23.30;99.90;;;;;;5017906;28;20227;-78
2021/07/24 00:34:02;;;;;;;7.45;6.85;;;23.20;99.90;;;;;;5027292;28;20282;-78
2021/07/24 00:36:30;;;;;;;6.50;6.00;;;23.20;99.90;;;;;;5033546;28;20226;-78
2021/07/24 00:38:57;;;;;;;7.95;7.25;;;23.30;99.90;;;;;;5018753;28;20646;-78
2021/07/24 00:41:31;;;;;;;6.70;6.20;;;23.20;99.90;;;;;;5023967;28;20227;-77
2021/07/24 00:44:02;;;;;;;5.90;5.40;;;23.20;99.90;;;;;;5029737;28;20215;-78
2021/07/24 00:46:31;;;;;;;6.80;6.22;;;23.10;99.90;;;;;;5025053;28;20222;-78
2021/07/24 00:49:01;;;;;;;5.93;5.43;;;23.10;99.90;;;;;;5020688;28;20261;-78
2021/07/24 00:51:32;;;;;;;6.68;6.07;;;23.10;99.90;;;;;;5021686;28;20220;-79
2021/07/24 00:53:59;;;;;;;6.97;6.45;;;23.20;99.90;;;;;;5025522;28;20298;-78
2021/07/24 00:56:28;;;;;;;6.55;5.82;;;23.20;99.90;;;;;;5031023;28;20216;-75
2021/07/24 00:58:55;;;;;;;6.78;6.18;;;23.20;99.90;;;;;;5016095;28;20228;-78
2021/07/24 01:01:23;;;;;;;6.50;6.00;;;23.20;99.90;;;;;;5021010;28;20223;-78
2021/07/24 01:03:50;;;;;;;6.00;5.50;;;23.20;99.90;;;;;;5022535;28;20220;-78
2021/07/24 01:06:18;;;;;;;6.85;6.28;;;23.20;99.90;;;;;;5024857;28;20219;-79
2021/07/24 01:08:46;;;;;;;6.50;6.00;;;23.20;99.90;;;;;;5026354;28;20273;-78
2021/07/24 01:11:13;;;;;;;7.40;6.80;;;23.20;99.90;;;;;;5019310;28;20219;-79
2021/07/24 01:13:42;;;;;;;7.68;6.97;;;23.20;99.90;;;;;;5018620;28;20228;-78
2021/07/24 01:19:31;;;;;;;6.53;6.03;;;23.20;99.90;;;;;;5015366;28;20702;-78
2021/07/24 01:22:00;;;;;;;6.90;6.07;;;23.20;99.90;;;;;;5017761;28;20298;-79
2021/07/24 01:24:27;;;;;;;6.93;6.32;;;23.30;99.90;;;;;;5016598;28;20223;-78
2021/07/24 01:26:54;;;;;;;6.72;6.22;;;23.20;99.90;;;;;;5024691;28;20250;-78
2021/07/24 01:29:22;;;;;;;7.82;7.18;;;23.20;99.90;;;;;;5021429;28;20231;-79
2021/07/24 01:31:50;;;;;;;7.05;6.35;;;23.20;99.90;;;;;;5024125;28;20246;-78
2021/07/24 01:34:17;;;;;;;7.75;6.88;;;23.20;99.90;;;;;;5022663;28;20260;-78
2021/07/24 01:36:44;;;;;;;6.97;6.38;;;23.30;99.90;;;;;;5018378;28;20219;-78
2021/07/24 01:39:12;;;;;;;7.20;6.60;;;23.20;99.90;;;;;;5017007;28;20665;-78
2021/07/24 01:41:44;;;;;;;7.07;6.47;;;23.20;99.90;;;;;;5028606;28;20235;-78
2021/07/24 01:44:11;;;;;;;7.20;6.60;;;23.20;99.90;;;;;;5025518;28;20219;-78
2021/07/24 01:46:38;;;;;;;7.30;6.65;;;23.20;99.90;;;;;;5027768;28;20219;-78
2021/07/24 01:52:46;;;;;;;7.65;6.95;;;23.20;99.90;;;;;;5021835;28;20246;-78
2021/07/24 01:55:02;;;;;;;6.47;5.97;;;23.10;99.90;;;;;;5028277;28;20374;-79
2021/07/24 01:57:30;;;;;;;7.05;6.45;;;23.10;99.90;;;;;;5024063;28;20219;-78
2021/07/24 02:00:00;;;;;;;7.90;7.25;;;23.10;99.90;;;;;;5027450;28;20223;-78
2021/07/24 02:02:31;;;;;;;7.40;6.80;;;23.10;99.90;;;;;;5025794;28;20223;-79
2021/07/24 02:05:00;;;;;;;8.63;6.97;;;23.10;99.90;;;;;;5030129;28;20748;-78
2021/07/24 02:07:29;;;;;;;7.88;7.15;;;23.10;99.90;;;;;;5023830;28;20219;-78
2021/07/24 02:09:59;;;;;;;7.07;6.38;;;23.00;99.90;;;;;;5026788;28;20226;-79
2021/07/24 02:12:26;;;;;;;7.22;6.63;;;23.00;99.90;;;;;;5031003;28;20285;-78
2021/07/24 02:14:53;;;;;;;7.93;7.15;;;23.00;99.90;;;;;;5029465;28;20219;-78
2021/07/24 02:17:20;;;;;;;7.80;7.10;;;23.00;99.90;;;;;;5026854;28;20304;-78
2021/07/24 02:19:47;;;;;;;8.10;7.30;;;22.90;99.90;;;;;;5020458;28;20215;-78
2021/07/24 02:22:14;;;;;;;7.85;6.93;;;22.90;99.90;;;;;;5017088;28;20227;-79
2021/07/24 02:24:41;;;;;;;8.13;7.43;;;22.80;99.90;;;;;;5028334;28;20651;-79
2021/07/24 02:27:10;;;;;;;8.00;7.13;;;22.80;99.90;;;;;;5014821;28;20228;-78
2021/07/24 02:29:37;;;;;;;8.18;7.47;;;22.80;99.90;;;;;;5023069;28;20698;-78
2021/07/24 02:32:05;;;;;;;8.02;7.32;;;22.80;99.90;;;;;;5021905;28;20228;-78
2021/07/24 02:34:32;;;;;;;7.55;6.93;;;22.70;99.90;;;;;;5024995;28;20215;-78
2021/07/24 02:36:59;;;;;;;7.45;6.85;;;22.70;99.90;;;;;;5022823;28;20289;-78
2021/07/24 02:39:26;;;;;;;6.63;6.05;;;22.70;99.90;;;;;;5028036;28;20224;-78
2021/07/24 02:41:53;;;;;;;7.82;6.93;;;22.70;99.90;;;;;;5022452;28;20231;-78
2021/07/24 02:44:21;;;;;;;8.27;7.47;;;22.70;99.90;;;;;;5024651;28;20816;-78
2021/07/24 02:46:48;;;;;;;7.47;6.88;;;22.70;99.90;;;;;;5022005;28;20215;-78
2021/07/24 02:49:17;;;;;;;8.13;7.32;;;22.70;99.90;;;;;;5018250;28;20276;-78
2021/07/24 02:51:44;;;;;;;8.48;7.70;;;22.70;99.90;;;;;;5023532;28;20855;-78
2021/07/24 02:54:11;;;;;;;7.57;6.75;;;22.70;99.90;;;;;;5024135;28;20219;-78
2021/07/24 02:56:38;;;;;;;7.57;6.97;;;22.70;99.90;;;;;;5016149;28;20289;-78
2021/07/24 02:59:05;;;;;;;7.05;6.35;;;22.80;99.90;;;;;;5024907;28;20230;-78
2021/07/24 03:01:33;;;;;;;7.38;6.75;;;22.70;99.90;;;;;;5019815;28;20708;-78
2021/07/24 03:04:00;;;;;;;7.88;7.18;;;22.70;99.90;;;;;;5033414;28;20697;-79
2021/07/24 03:06:27;;;;;;;7.03;6.43;;;22.80;99.90;;;;;;5026896;28;20254;-79
2021/07/24 03:08:54;;;;;;;8.05;7.35;;;22.70;99.90;;;;;;5026468;28;20303;-78
2021/07/24 03:11:21;;;;;;;6.45;5.95;;;22.80;99.90;;;;;;5027402;28;20223;-77
2021/07/24 03:13:48;;;;;;;7.68;6.97;;;22.70;99.90;;;;;;5030541;28;20219;-78
2021/07/24 03:16:15;;;;;;;7.25;6.63;;;22.70;99.90;;;;;;5023613;28;20232;-78
2021/07/24 03:18:43;;;;;;;6.95;6.35;;;22.70;99.90;;;;;;5024395;28;20223;-79
2021/07/24 03:21:10;;;;;;;7.10;6.47;;;22.70;99.90;;;;;;5020324;28;20267;-79
2021/07/24 03:23:37;;;;;;;6.47;5.93;;;22.80;99.90;;;;;;5035381;28;20284;-78
2021/07/24 03:26:09;;;;;;;7.25;6.65;;;22.70;99.90;;;;;;5023082;28;20243;-78
2021/07/24 03:28:36;;;;;;;6.88;6.38;;;22.70;99.90;;;;;;5026643;28;20303;-78
2021/07/24 03:31:03;;;;;;;7.60;7.00;;;22.70;99.90;;;;;;5018813;28;20301;-79
2021/07/24 03:33:30;;;;;;;8.20;7.43;;;22.70;99.90;;;;;;5025647;28;20226;-79
2021/07/24 03:35:58;;;;;;;7.82;7.13;;;22.70;99.90;;;;;;5031569;28;20219;-78
2021/07/24 03:38:27;;;;;;;7.97;7.28;;;22.70;99.90;;;;;;5025286;28;20228;-78
2021/07/24 03:40:54;;;;;;;7.35;6.65;;;22.70;99.90;;;;;;5023479;28;20228;-78
2021/07/24 03:43:21;;;;;;;6.93;6.43;;;22.70;99.90;;;;;;5016745;28;20277;-77
2021/07/24 03:45:48;;;;;;;7.22;6.63;;;22.70;99.90;;;;;;5023903;28;20219;-79
2021/07/24 03:48:15;;;;;;;8.02;7.35;;;22.70;99.90;;;;;;5015938;28;20220;-78
2021/07/24 03:50:42;;;;;;;7.40;6.80;;;22.70;99.90;;;;;;5029670;28;20602;-78
2021/07/24 03:53:11;;;;;;;7.68;6.88;;;22.60;99.90;;;;;;5019650;28;20297;-78
2021/07/24 03:55:38;;;;;;;7.43;6.80;;;22.60;99.90;;;;;;5026798;28;20680;-78
2021/07/24 03:58:05;;;;;;;7.13;6.53;;;22.60;99.90;;;;;;5024438;28;20227;-79
2021/07/24 04:00:38;;;;;;;6.55;6.05;;;22.60;99.90;;;;;;5017955;28;20257;-79
2021/07/24 04:03:05;;;;;;;7.00;6.40;;;22.60;99.90;;;;;;5020444;28;20314;-78
2021/07/24 04:05:39;;;;;;;7.22;6.53;;;22.60;99.90;;;;;;5025125;28;20244;-78
2021/07/24 04:08:07;;;;;;;7.45;6.85;;;22.60;99.90;;;;;;5020099;28;20274;-78
2021/07/24 04:10:36;;;;;;;7.53;6.82;;;22.60;99.90;;;;;;5015989;28;20224;-78
2021/07/24 04:13:03;;;;;;;9.40;7.60;;;22.60;99.90;;;;;;5022170;28;20709;-79
2021/07/24 04:15:30;;;;;;;7.40;6.70;;;22.70;99.90;;;;;;5021260;28;20720;-78
2021/07/24 04:17:58;;;;;;;7.72;7.10;;;22.70;99.90;;;;;;5013110;28;20578;-78
2021/07/24 04:20:26;;;;;;;8.13;7.43;;;22.70;99.90;;;;;;5022147;28;20220;-78
2021/07/24 04:22:53;;;;;;;8.10;7.47;;;22.70;99.90;;;;;;5015425;28;20317;-77
2021/07/24 04:25:20;;;;;;;7.28;6.68;;;22.60;99.90;;;;;;5019680;28;20270;-78
2021/07/24 04:27:48;;;;;;;7.30;6.65;;;22.60;99.90;;;;;;5018996;28;20220;-79
2021/07/24 04:30:16;;;;;;;7.47;6.70;;;22.60;99.90;;;;;;5012634;28;20278;-78
2021/07/24 04:32:42;;;;;;;7.28;6.68;;;22.70;99.90;;;;;;5016949;28;20226;-78
2021/07/24 04:35:10;;;;;;;7.07;6.45;;;22.80;99.90;;;;;;5018819;28;20637;-78
2021/07/24 04:37:37;;;;;;;7.55;6.95;;;22.80;99.90;;;;;;5021314;28;20224;-78
2021/07/24 04:40:05;;;;;;;6.93;6.35;;;22.80;99.90;;;;;;5020611;28;20235;-78
2021/07/24 04:42:32;;;;;;;8.15;7.45;;;22.90;99.90;;;;;;5018502;28;20722;-79
2021/07/24 04:45:01;;;;;;;7.30;6.70;;;23.00;99.90;;;;;;5022391;28;20286;-78
2021/07/24 04:47:28;;;;;;;8.30;7.60;;;23.10;99.90;;;;;;5016720;28;20223;-79
2021/07/24 04:49:55;;;;;;;7.25;6.63;;;23.00;99.90;;;;;;5024361;28;20228;-78
2021/07/24 04:52:23;;;;;;;7.97;7.30;;;23.10;99.90;;;;;;5018637;28;20234;-79
2021/07/24 04:54:51;;;;;;;7.78;7.07;;;23.20;99.90;;;;;;5019501;28;20239;-78
2021/07/24 04:57:19;;;;;;;7.85;7.05;;;23.20;99.90;;;;;;5022650;28;20218;-80
2021/07/24 04:59:47;;;;;;;7.90;7.03;;;23.20;99.90;;;;;;5017876;28;20235;-78
2021/07/24 05:02:17;;;;;;;8.05;7.28;;;23.20;99.90;;;;;;5016524;28;20235;-78
2021/07/24 05:04:45;;;;;;;8.02;7.43;;;23.20;99.90;;;;;;5020293;28;20710;-79
2021/07/24 05:07:13;;;;;;;7.75;7.05;;;23.10;99.90;;;;;;5016929;28;20710;-78
2021/07/24 05:09:41;;;;;;;8.18;7.47;;;23.10;99.90;;;;;;5022394;28;20282;-78
2021/07/24 05:12:09;;;;;;;8.30;7.60;;;22.90;99.90;;;;;;5018064;28;20277;-78
2021/07/24 05:14:36;;;;;;;8.35;7.65;;;22.80;99.90;;;;;;5020313;28;20587;-77
2021/07/24 05:17:07;;;;;;;8.45;7.70;;;22.70;99.90;;;;;;5016534;28;20299;-79
2021/07/24 05:19:37;;;;;;;7.57;6.97;;;22.80;99.90;;;;;;5020258;28;20239;-78
2021/07/24 05:22:05;;;;;;;8.02;7.32;;;22.80;99.90;;;;;;5015440;28;20322;-78
2021/07/24 05:24:32;;;;;;;8.30;7.60;;;22.80;99.90;;;;;;5024077;28;20639;-78
2021/07/24 05:26:59;;;;;;;8.25;7.55;;;22.80;99.90;;;;;;5018738;28;20223;-77
2021/07/24 05:29:26;;;;;;;8.55;7.65;;;22.90;99.90;;;;;;5025208;28;20596;-79
2021/07/24 05:31:53;;;;;;;8.30;7.60;;;22.90;99.90;;;;;;5023390;28;20231;-78
2021/07/24 05:34:20;;;;;;;8.45;7.60;;;23.10;99.90;;;;;;5020359;28;20216;-78
2021/07/24 05:36:48;;;;;;;9.13;8.23;;;23.20;99.90;;;;;;5026539;28;20689;-78
2021/07/24 05:39:15;;;;;;;8.60;7.80;;;23.40;99.90;;;;;;5017465;28;20227;-79
2021/07/24 05:41:42;;;;;;;9.48;8.57;;;23.50;99.90;;;;;;5015705;28;20228;-78
2021/07/24 05:44:12;;;;;;;9.45;8.55;;;23.60;99.90;;;;;;5021470;28;20220;-78
2021/07/24 05:46:39;;;;;;;9.65;8.73;;;23.60;99.90;;;;;;5016409;28;20606;-79
2021/07/24 05:49:06;;;;;;;9.02;8.32;;;23.70;99.90;;;;;;5017307;28;20215;-78
2021/07/24 05:51:34;;;;;;;9.77;8.80;;;23.80;99.90;;;;;;5017891;28;20223;-78
2021/07/24 05:54:02;;;;;;;9.27;8.48;;;23.90;99.90;;;;;;5032432;28;20242;-79
2021/07/24 05:56:29;;;;;;;9.43;8.52;;;24.00;99.90;;;;;;5024980;28;20274;-79
2021/07/24 05:58:56;;;;;;;9.25;8.35;;;24.10;99.90;;;;;;5023129;28;20248;-78
2021/07/24 06:01:23;;;;;;;8.93;8.13;;;24.20;99.90;;;;;;5029004;28;20228;-80
2021/07/24 06:03:50;;;;;;;10.82;8.98;;;24.20;99.90;;;;;;5016137;28;20227;-79
2021/07/24 06:06:17;;;;;;;9.15;8.30;;;24.10;99.90;;;;;;5022410;28;20223;-78
2021/07/24 06:08:44;;;;;;;8.98;8.27;;;24.00;99.90;;;;;;5022912;28;20223;-78
2021/07/24 06:11:12;;;;;;;9.63;8.75;;;23.90;99.90;;;;;;5021369;28;20216;-78
2021/07/24 06:13:44;;;;;;;9.05;8.25;;;23.80;99.90;;;;;;5022242;28;20227;-78
2021/07/24 06:16:11;;;;;;;8.95;8.05;;;23.70;99.90;;;;;;5014762;28;20709;-78
2021/07/24 06:18:38;;;;;;;8.20;7.50;;;23.70;99.90;;;;;;5015152;28;20643;-78
2021/07/24 06:21:05;;;;;;;8.55;7.85;;;23.70;99.90;;;;;;5015578;28;20223;-78
2021/07/24 06:23:32;;;;;;;7.93;7.32;;;23.70;99.90;;;;;;5018970;28;20227;-79
2021/07/24 06:26:03;;;;;;;8.00;7.30;;;24.00;99.90;;;;;;5021117;28;20249;-78
2021/07/24 06:28:31;;;;;;;9.23;8.40;;;24.30;99.90;;;;;;5024689;28;20218;-78
2021/07/24 06:31:02;;;;;;;9.80;9.00;;;24.50;99.90;;;;;;4990138;28;20282;-78
2021/07/24 06:33:29;;;;;;;9.65;8.75;;;24.70;99.90;;;;;;5020891;28;20339;-78
2021/07/24 06:35:58;;;;;;;9.43;8.63;;;24.80;99.90;;;;;;5014958;28;20224;-78
2021/07/24 06:38:26;;;;;;;10.20;9.30;;;24.80;99.90;;;;;;5010558;28;20310;-79
2021/07/24 06:40:53;;;;;;;9.73;8.88;;;24.80;99.90;;;;;;5012023;28;20325;-79
2021/07/24 06:43:20;;;;;;;10.07;9.18;;;24.80;99.90;;;;;;5015794;28;20223;-78
2021/07/24 06:45:48;;;;;;;10.25;9.38;;;24.90;99.90;;;;;;5012517;28;20215;-77
2021/07/24 06:48:15;;;;;;;10.55;9.55;;;25.00;99.90;;;;;;5009873;28;20228;-78
2021/07/24 06:50:42;;;;;;;10.82;9.48;;;25.20;99.90;;;;;;5016504;28;20269;-78
2021/07/24 06:53:10;;;;;;;9.93;9.07;;;25.40;99.90;;;;;;5016947;28;20286;-78
2021/07/24 06:55:37;;;;;;;10.85;9.95;;;25.50;99.90;;;;;;5010080;28;20222;-78
2021/07/24 06:58:04;;;;;;;10.05;9.15;;;25.70;99.90;;;;;;5009878;28;20231;-78
2021/07/24 07:00:31;;;;;;;10.23;9.27;;;25.70;99.90;;;;;;5012288;28;20237;-79
2021/07/24 07:03:01;;;;;;;10.50;9.60;;;25.60;99.90;;;;;;5010939;28;20236;-79
2021/07/24 07:05:28;;;;;;;14.18;10.07;;;25.50;99.90;;;;;;5014001;28;20224;-78
2021/07/24 07:07:55;;;;;;;11.10;10.10;;;25.20;99.90;;;;;;5014449;28;20227;-79
2021/07/24 07:10:23;;;;;;;10.23;9.23;;;25.00;99.90;;;;;;5014774;28;20224;-79
2021/07/24 07:12:50;;;;;;;10.27;9.38;;;24.80;99.90;;;;;;5009414;28;20224;-78
2021/07/24 07:15:17;;;;;;;9.50;8.68;;;24.70;99.90;;;;;;5011566;28;20232;-79
2021/07/24 07:17:44;;;;;;;9.95;9.15;;;24.70;99.90;;;;;;5016316;28;20219;-79
2021/07/24 07:20:13;;;;;;;11.82;10.43;;;24.70;99.90;;;;;;5017409;28;20285;-78
2021/07/24 07:22:40;;;;;;;11.30;10.15;;;24.80;99.90;;;;;;5017240;28;20310;-79
2021/07/24 07:25:08;;;;;;;11.63;10.52;;;25.10;99.90;;;;;;5018455;28;20289;-78
2021/07/24 07:27:35;;;;;;;11.45;10.45;;;25.40;99.90;;;;;;5014665;28;20215;-78
2021/07/24 07:30:02;;;;;;;11.32;10.27;;;25.60;99.90;;;;;;5017490;28;20278;-79
2021/07/24 07:32:29;;;;;;;11.82;10.63;;;25.60;99.90;;;;;;5017250;28;20227;-79
2021/07/24 07:34:56;;;;;;;11.90;10.68;;;25.70;99.90;;;;;;5027184;28;20669;-79
2021/07/24 07:37:24;;;;;;;10.90;10.00;;;25.70;99.90;;;;;;5023343;28;20228;-78
2021/07/24 07:39:52;;;;;;;13.82;10.27;;;25.80;99.90;;;;;;5019024;28;20296;-78
2021/07/24 07:42:19;;;;;;;11.57;10.55;;;25.90;99.90;;;;;;5022107;28;20235;-78
2021/07/24 07:44:46;;;;;;;11.15;10.15;;;25.90;99.90;;;;;;5014022;28;20224;-78
2021/07/24 07:47:13;;;;;;;11.60;10.45;;;26.00;99.90;;;;;;5012934;28;20286;-78
2021/07/24 07:49:40;;;;;;;10.45;9.55;;;26.10;99.90;;;;;;5021100;28;20223;-78
2021/07/24 07:52:08;;;;;;;10.85;9.73;;;26.30;99.90;;;;;;5019052;28;20271;-78
2021/07/24 07:54:36;;;;;;;10.48;9.55;;;26.40;99.90;;;;;;5018501;28;20227;-80
2021/07/24 07:57:04;;;;;;;11.13;10.18;;;26.60;99.90;;;;;;5014159;28;20227;-78
2021/07/24 07:59:32;;;;;;;12.07;11.02;;;26.80;99.90;;;;;;5011805;28;20230;-79
2021/07/24 08:01:59;;;;;;;12.00;11.00;;;26.70;99.90;;;;;;5015196;28;20299;-78
2021/07/24 08:04:26;;;;;;;10.57;9.57;;;26.70;99.90;;;;;;5015665;28;20246;-79
2021/07/24 08:06:53;;;;;;;12.13;11.02;;;26.80;99.90;;;;;;5012415;28;20274;-79
2021/07/24 08:09:20;;;;;;;10.93;9.85;;;26.90;99.90;;;;;;5015961;28;20239;-79
2021/07/24 08:11:50;;;;;;;11.23;10.23;;;26.80;99.90;;;;;;5013972;28;20224;-79
2021/07/24 08:14:17;;;;;;;11.90;10.70;;;27.00;99.90;;;;;;5022808;28;20269;-79
2021/07/24 08:16:45;;;;;;;12.30;11.10;;;27.10;99.90;;;;;;5025250;28;20231;-79
2021/07/24 08:19:12;;;;;;;11.38;10.27;;;26.90;99.90;;;;;;5017731;28;20294;-79
2021/07/24 08:21:39;;;;;;;11.25;10.25;;;26.60;99.90;;;;;;5027627;28;20225;-78
2021/07/24 08:24:06;;;;;;;10.57;9.68;;;26.50;99.90;;;;;;5025011;28;20219;-78
2021/07/24 08:26:33;;;;;;;11.35;10.30;;;26.60;99.90;;;;;;5022658;28;20223;-80
2021/07/24 08:29:02;;;;;;;10.88;9.88;;;26.60;99.90;;;;;;5022394;28;20277;-79
2021/07/24 08:31:30;;;;;;;11.60;10.57;;;26.70;99.90;;;;;;5017572;28;20246;-78
2021/07/24 08:33:57;;;;;;;11.18;10.15;;;26.90;99.90;;;;;;5018434;28;20282;-79
2021/07/24 08:36:24;;;;;;;11.20;10.10;;;26.90;99.90;;;;;;5018196;28;20231;-78
2021/07/24 08:38:51;;;;;;;11.70;9.55;;;26.80;99.90;;;;;;5017490;28;20286;-78
2021/07/24 08:41:18;;;;;;;10.93;9.93;;;26.90;99.90;;;;;;5021822;28;20255;-79
2021/07/24 08:43:45;;;;;;;11.50;10.50;;;26.80;99.90;;;;;;5020883;28;20274;-78
2021/07/24 08:46:14;;;;;;;12.00;10.85;;;26.60;99.90;;;;;;5023815;28;20216;-78
2021/07/24 08:48:42;;;;;;;12.43;11.32;;;26.40;99.90;;;;;;5021263;28;20302;-78
2021/07/24 08:51:12;;;;;;;12.70;11.43;;;26.50;99.90;;;;;;5026809;28;20227;-80
2021/07/24 08:53:42;;;;;;;12.10;11.10;;;26.50;99.90;;;;;;5042607;28;20224;-79
2021/07/24 08:56:17;;;;;;;12.07;10.77;;;26.50;99.90;;;;;;5030188;28;20313;-78
2021/07/24 08:58:46;;;;;;;10.68;9.68;;;26.70;99.90;;;;;;5020069;28;20727;-78
2021/07/24 09:01:19;;;;;;;10.80;9.90;;;26.60;99.90;;;;;;5025043;28;20223;-78
2021/07/24 09:03:47;;;;;;;10.68;9.77;;;26.70;99.90;;;;;;5020979;28;20313;-78
2021/07/24 09:06:19;;;;;;;12.10;11.00;;;26.60;99.90;;;;;;5018444;28;20220;-79
2021/07/24 09:08:48;;;;;;;11.52;10.32;;;26.50;99.90;;;;;;5010205;28;20646;-78
2021/07/24 09:11:15;;;;;;;12.38;11.18;;;26.70;99.90;;;;;;5019540;28;20223;-76
2021/07/24 09:13:43;;;;;;;11.60;10.55;;;26.90;99.90;;;;;;5017521;28;20226;-78
2021/07/24 09:16:10;;;;;;;12.18;10.98;;;27.30;99.90;;;;;;5020602;28;20230;-78
2021/07/24 09:18:39;;;;;;;11.77;10.77;;;27.70;99.90;;;;;;5020618;28;20231;-77
2021/07/24 09:21:07;;;;;;;14.13;10.98;;;28.10;99.90;;;;;;5018725;28;20250;-77
2021/07/24 09:23:36;;;;;;;13.70;12.38;;;28.40;99.90;;;;;;5021314;28;20222;-79
2021/07/24 09:26:05;;;;;;;11.60;10.60;;;28.30;99.90;;;;;;5018156;28;20310;-78
2021/07/24 09:28:32;;;;;;;10.75;9.77;;;28.30;99.90;;;;;;5017173;28;20326;-76
2021/07/24 09:31:14;;;;;;;12.77;11.48;;;28.60;99.90;;;;;;5015584;28;20220;-79
2021/07/24 09:33:50;;;;;;;11.65;10.60;;;29.00;99.90;;;;;;5009616;28;20230;-77
2021/07/24 09:36:30;;;;;;;11.15;10.13;;;29.00;99.90;;;;;;5021553;28;20405;-78
2021/07/24 09:39:07;;;;;;;11.63;10.63;;;28.90;99.90;;;;;;5012354;28;20226;-77
2021/07/24 09:41:34;;;;;;;12.40;10.90;;;28.60;99.90;;;;;;5018127;28;20218;-77
2021/07/24 09:44:01;;;;;;;12.50;11.30;;;28.10;99.90;;;;;;5016823;28;20286;-78
2021/07/24 09:46:28;;;;;;;12.90;11.65;;;27.80;99.90;;;;;;5013472;28;20281;-78
2021/07/24 09:48:57;;;;;;;12.20;11.10;;;27.50;99.90;;;;;;5015453;28;20604;-77
2021/07/24 09:51:34;;;;;;;13.50;12.13;;;27.30;99.90;;;;;;5022552;28;20705;-78
2021/07/24 09:54:01;;;;;;;11.38;10.10;;;27.10;99.90;;;;;;5017775;28;20219;-78
2021/07/24 09:56:40;;;;;;;11.25;10.23;;;27.00;99.90;;;;;;5012426;28;20227;-78
2021/07/24 09:59:22;;;;;;;11.88;10.68;;;27.10;99.90;;;;;;5017447;28;20254;-77
2021/07/24 10:01:56;;;;;;;12.27;11.18;;;27.10;99.90;;;;;;5009629;28;20232;-77
2021/07/24 10:04:30;;;;;;;12.48;11.48;;;27.00;99.90;;;;;;5016932;28;20227;-77
2021/07/24 10:06:59;;;;;;;11.82;10.82;;;27.00;99.90;;;;;;5028306;28;20245;-79
2021/07/24 10:09:29;;;;;;;12.40;11.27;;;27.00;99.90;;;;;;5016652;28;20250;-78
2021/07/24 10:11:57;;;;;;;13.30;12.05;;;27.00;99.90;;;;;;5012099;28;20232;-78
2021/07/24 10:14:25;;;;;;;13.88;12.48;;;26.90;99.90;;;;;;5017021;28;20741;-77
2021/07/24 10:16:54;;;;;;;12.48;11.38;;;27.10;99.90;;;;;;5010545;28;20241;-77
2021/07/24 10:19:22;;;;;;;15.13;13.73;;;27.20;99.90;;;;;;5012995;28;21606;-77
2021/07/24 10:21:52;;;;;;;13.50;12.13;;;27.20;99.90;;;;;;5016377;28;20386;-77
2021/07/24 10:24:19;;;;;;;12.95;11.68;;;27.10;99.90;;;;;;5014455;28;20223;-77
2021/07/24 10:26:52;;;;;;;12.02;11.02;;;27.00;99.90;;;;;;5017104;28;20238;-78
2021/07/24 10:29:26;;;;;;;13.73;12.52;;;27.20;99.90;;;;;;5009532;28;20242;-78
2021/07/24 10:32:00;;;;;;;13.90;12.50;;;27.50;99.90;;;;;;5009767;28;20238;-77
2021/07/24 10:34:31;;;;;;;13.82;12.60;;;27.50;99.90;;;;;;5013467;28;20293;-77
2021/07/24 10:37:00;;;;;;;13.48;12.18;;;27.70;99.90;;;;;;5006855;28;20238;-76
2021/07/24 10:39:27;;;;;;;12.77;11.52;;;27.80;99.90;;;;;;5011659;28;20252;-77
2021/07/24 10:42:09;;;;;;;12.63;11.35;;;27.80;99.90;;;;;;5012443;28;20238;-77
2021/07/24 10:44:38;;;;;;;12.43;11.32;;;27.80;99.90;;;;;;5014735;28;20241;-78
2021/07/24 10:47:21;;;;;;;12.05;10.68;;;27.80;99.90;;;;;;5020138;28;20310;-77
2021/07/24 10:50:05;;;;;;;13.35;12.05;;;27.80;99.90;;;;;;5011374;28;20662;-79
2021/07/24 10:53:12;;;;;;;10.90;9.80;;;27.80;99.90;;;;;;5013657;28;20313;-76
2021/07/24 10:55:48;;;;;;;12.30;11.23;;;28.20;99.90;;;;;;5013089;28;20302;-77
2021/07/24 10:58:17;;;;;;;11.57;10.60;;;28.80;99.90;;;;;;5026792;28;20230;-78
2021/07/24 11:00:54;;;;;;;12.77;11.68;;;28.80;99.90;;;;;;5014535;28;20282;-76
2021/07/24 11:03:46;;;;;;;11.57;10.57;;;29.00;99.90;;;;;;5010964;28;20305;-78
2021/07/24 11:06:30;;;;;;;12.00;10.90;;;29.30;99.90;;;;;;4990142;28;20841;-78
2021/07/24 11:09:16;;;;;;;12.57;11.30;;;29.60;99.90;;;;;;5015998;28;20270;-76
2021/07/24 11:11:47;;;;;;;12.05;10.93;;;30.00;99.90;;;;;;5014463;28;20225;-79
2021/07/24 11:14:56;;;;;;;12.25;11.05;;;30.30;99.90;;;;;;5016097;28;20310;-79
2021/07/24 11:17:24;;;;;;;11.45;10.18;;;30.40;99.90;;;;;;5017891;28;20707;-80
2021/07/24 11:20:30;;;;;;;12.18;11.05;;;30.50;99.90;;;;;;5019258;28;20582;-78
2021/07/24 11:25:37;;;;;;;10.95;9.95;;;30.20;99.90;;;;;;5565315;22;20220;-77
2021/07/24 11:28:07;;;;;;;12.00;10.77;;;30.20;99.90;;;;;;4961739;28;20252;-75
2021/07/24 11:30:34;;;;;;;10.13;9.32;;;30.30;99.90;;;;;;4963582;28;20725;-77
2021/07/24 11:33:01;;;;;;;11.85;10.70;;;30.50;99.90;;;;;;4969845;28;20227;-77
2021/07/24 11:35:30;;;;;;;10.73;9.70;;;30.50;99.90;;;;;;4965092;28;20653;-77
2021/07/24 11:37:58;;;;;;;13.52;12.32;;;30.70;99.90;;;;;;4966656;28;20300;-77
2021/07/24 11:40:27;;;;;;;11.75;10.75;;;30.80;99.90;;;;;;4966872;28;20715;-76
2021/07/24 11:42:59;;;;;;;11.57;10.50;;;30.90;99.90;;;;;;4969114;28;20277;-75
2021/07/24 11:45:29;;;;;;;10.50;9.50;;;31.10;99.90;;;;;;4967920;28;20240;-77
2021/07/24 11:48:13;;;;;;;10.77;9.73;;;31.30;99.90;;;;;;4975093;28;20227;-76
2021/07/24 11:50:41;;;;;;;10.25;9.35;;;31.40;99.90;;;;;;4975253;28;20217;-76
2021/07/24 11:53:08;;;;;;;11.20;8.95;;;31.50;99.90;;;;;;4982042;28;20307;-77
2021/07/24 11:55:36;;;;;;;9.98;8.90;;;31.60;99.90;;;;;;4970986;28;20225;-76
2021/07/24 11:58:05;;;;;;;10.60;9.60;;;31.70;99.90;;;;;;4971727;28;20711;-76
2021/07/24 12:00:36;;;;;;;10.48;9.38;;;31.70;99.90;;;;;;4973838;28;20233;-77
2021/07/24 12:03:17;;;;;;;12.80;11.38;;;31.70;99.90;;;;;;4978280;28;20252;-78
2021/07/24 12:05:45;;;;;;;10.68;9.68;;;31.60;99.90;;;;;;4970574;28;20279;-76
2021/07/24 12:08:13;;;;;;;12.15;11.05;;;31.50;99.90;;;;;;4977172;28;20241;-77
2021/07/24 12:10:42;;;;;;;13.52;11.50;;;31.40;99.90;;;;;;4976759;28;20660;-76
2021/07/24 12:13:11;;;;;;;11.02;9.95;;;31.00;99.90;;;;;;4978279;28;20233;-77
2021/07/24 12:16:00;;;;;;;10.90;9.90;;;31.00;99.90;;;;;;4977595;28;20228;-78
2021/07/24 12:18:29;;;;;;;10.73;9.80;;;31.30;99.90;;;;;;4967543;28;20332;-76
2021/07/24 12:21:14;;;;;;;10.38;9.48;;;31.10;99.90;;;;;;4978979;28;20217;-76
2021/07/24 12:23:53;;;;;;;10.98;10.07;;;30.90;99.90;;;;;;4973522;28;20216;-76
2021/07/24 12:26:23;;;;;;;10.57;9.45;;;30.70;99.90;;;;;;4969739;28;20224;-77
2021/07/24 12:28:50;;;;;;;10.73;9.80;;;30.50;99.90;;;;;;4965817;28;20518;-77
2021/07/24 12:31:30;;;;;;;9.23;8.43;;;30.60;99.90;;;;;;4969725;28;20224;-77
2021/07/24 12:33:58;;;;;;;11.15;10.05;;;30.50;99.90;;;;;;4962191;28;20288;-76
2021/07/24 12:36:26;;;;;;;13.98;10.75;;;30.60;99.90;;;;;;4970158;28;20228;-76
2021/07/24 12:38:55;;;;;;;11.52;10.45;;;30.80;99.90;;;;;;4967027;28;20229;-78
2021/07/24 12:41:32;;;;;;;11.00;10.00;;;30.70;99.90;;;;;;4970908;28;20228;-76
2021/07/24 12:44:03;;;;;;;11.40;10.30;;;30.80;99.90;;;;;;4973255;28;20393;-76
2021/07/24 12:46:32;;;;;;;12.77;11.48;;;30.60;99.90;;;;;;4978439;28;20326;-77
2021/07/24 12:49:00;;;;;;;12.82;11.63;;;30.30;99.90;;;;;;4974021;28;20256;-77
2021/07/24 12:51:35;;;;;;;12.63;11.35;;;30.30;99.90;;;;;;4980300;28;20576;-78
2021/07/24 12:54:31;;;;;;;11.90;10.75;;;30.40;99.90;;;;;;4968564;28;20703;-77
2021/07/24 12:57:25;;;;;;;12.13;10.93;;;30.40;99.90;;;;;;4946464;28;20283;-79
2021/07/24 13:00:14;;;;;;;12.10;10.98;;;30.50;99.90;;;;;;4938186;28;20252;-78